Time;durP1;ratioP1;P1;durP2;ratioP2;P2;SDS_P1;SDS_P2;PMS_P1;PMS_P2;Temp;Humidity;BMP_temperature;BMP_pressure;BME280_temperature;BME280_humidity;BME280_pressure;Samples;Min_cycle;Max_cycle;Signal;HPM_P1;HPM_P2
2021/11/15 00:03:37;;;;;;;;;;;;;;;;;;;;;
2021/11/15 00:07:16;;;;;;;2.47;1.35;;;;;;;4.74;100.00;92785.25;6000965;23;20020;-95
2021/11/15 00:14:54;;;;;;;;;;;;;;;;;;;;;
2021/11/15 00:26:00;;;;;;;;;;;;;;;;;;;;;
2021/11/15 00:40:46;;;;;;;;;;;;;;;4.59;100.00;92780.66;6146054;23;20451;-93
2021/11/15 00:51:37;;;;;;;;;;;;;;;;;;;;;
2021/11/15 01:03:49;;;;;;;;;;;;;;;;;;;;;
2021/11/15 01:34:16;;;;;;;1.75;1.10;;;;;;;4.62;100.00;92769.84;5872827;24;20386;-93
2021/11/15 01:38:11;;;;;;;;;;;;;;;;;;;;;
2021/11/15 02:04:36;;;;;;;;;;;;;;;;;;;;;
2021/11/15 02:12:05;;;;;;;;;;;;;;;;;;;;;
2021/11/15 02:15:34;;;;;;;;;;;;;;;;;;;;;
2021/11/15 02:34:30;;;;;;;1.55;0.90;;;;;;;4.66;100.00;92726.84;6035939;23;20437;-94
2021/11/15 02:50:04;;;;;;;;;;;;;;;;;;;;;
2021/11/15 02:53:56;;;;;;;;;;;;;;;;;;;;;
2021/11/15 03:05:20;;;;;;;1.10;0.80;;;;;;;4.75;100.00;92711.59;6050713;23;20409;-95
2021/11/15 03:09:05;;;;;;;;;;;;;;;;;;;;;
2021/11/15 03:36:36;;;;;;;;;;;;;;;;;;;;;
2021/11/15 03:40:13;;;;;;;;;;;;;;;;;;;;;
2021/11/15 03:59:45;;;;;;;;;;;;;;;;;;;;;
2021/11/15 04:42:39;;;;;;;;;;;;;;;;;;;;;
2021/11/15 04:46:22;;;;;;;;;;;;;;;;;;;;;
2021/11/15 05:13:08;;;;;;;;;;;;;;;;;;;;;
2021/11/15 05:16:43;;;;;;;;;;;;;;;;;;;;;
2021/11/15 05:20:24;;;;;;;;;;;;;;;;;;;;;
2021/11/15 05:23:47;;;;;;;;;;;;;;;;;;;;;
2021/11/15 05:31:11;;;;;;;;;;;;;;;;;;;;;
2021/11/15 05:35:28;;;;;;;;;;;;;;;;;;;;;
2021/11/15 05:42:51;;;;;;;2.10;1.30;;;;;;;5.30;98.45;92722.75;6329231;22;20517;-94
2021/11/15 05:50:59;;;;;;;;;;;;;;;;;;;;;
2021/11/15 06:05:11;;;;;;;1.75;0.93;;;;;;;5.38;97.47;92733.47;6343944;22;20026;-91
2021/11/15 06:08:53;;;;;;;1.83;1.15;;;;;;;5.39;97.13;92735.03;6349525;22;20015;-92
2021/11/15 06:11:52;;;;;;;;;;;;;;;;;;;;;
2021/11/15 06:18:52;;;;;;;;;;;;;;;;;;;;;
2021/11/15 06:25:18;;;;;;;3.17;1.40;;;;;;;5.36;97.38;92747.72;6366020;22;20345;-94
2021/11/15 06:27:51;;;;;;;1.17;1.00;;;;;;;5.36;97.73;92745.13;6318237;22;20105;-95
2021/11/15 06:34:05;;;;;;;1.05;0.77;;;;;;;5.45;97.78;92755.81;6292763;22;20032;-92
2021/11/15 06:37:00;;;;;;;2.13;1.10;;;;;;;5.48;96.74;92750.94;6342374;22;20055;-93
2021/11/15 06:40:09;;;;;;;;;;;;;;;;;;;;;
2021/11/15 06:42:58;;;;;;;1.75;1.17;;;;;;;5.48;96.43;92756.13;6341701;22;20011;-92
2021/11/15 06:45:42;;;;;;;1.50;1.00;;;;;;;5.48;96.08;92761.31;6315818;22;20488;-94
2021/11/15 06:48:37;;;;;;;1.95;1.15;;;;;;;5.52;95.43;92767.59;6268792;22;20072;-94
2021/11/15 06:51:48;;;;;;;1.75;1.15;;;;;;;5.63;95.31;92779.63;6327187;22;20022;-92
2021/11/15 06:54:48;;;;;;;1.52;1.00;;;;;;;5.64;94.97;92778.56;6342893;22;20477;-91
2021/11/15 06:57:16;;;;;;;2.17;1.25;;;;;;;5.57;95.28;92767.63;6311593;22;20487;-91
2021/11/15 07:00:16;;;;;;;5.40;1.30;;;;;;;5.66;95.65;92775.75;6334725;22;20045;-89
2021/11/15 07:03:14;;;;;;;2.25;1.20;;;;;;;5.61;95.58;92776.50;6345080;22;20018;-93
2021/11/15 07:06:17;;;;;;;;;;;;;;;;;;;;;
2021/11/15 07:09:10;;;;;;;2.13;1.25;;;;;;;5.62;96.51;92772.84;6349400;22;20097;-93
2021/11/15 07:11:59;;;;;;;2.35;1.20;;;;;;;5.66;96.59;92774.97;6318390;22;20015;-93
2021/11/15 07:14:56;;;;;;;6.40;1.33;;;;;;;5.67;96.19;92773.91;6318360;22;20014;-94
2021/11/15 07:17:46;;;;;;;2.80;1.45;;;;;;;5.74;96.48;92779.69;6341742;22;20022;-93
2021/11/15 07:20:52;;;;;;;;;;;;;;;;;;;;;
2021/11/15 07:23:24;;;;;;;1.65;1.05;;;;;;;5.75;96.60;92782.03;6319126;22;20011;-94
2021/11/15 07:30:04;;;;;;;1.83;1.20;;;;;;;5.80;95.70;92778.69;6364111;22;20086;-93
2021/11/15 07:32:50;;;;;;;2.53;1.10;;;;;;;5.96;95.40;92797.81;6355660;22;20097;-92
2021/11/15 07:39:55;;;;;;;1.85;1.00;;;;;;;5.97;95.25;92794.19;6341762;22;20437;-93
2021/11/15 07:43:08;;;;;;;1.42;1.00;;;;;;;6.11;95.21;92805.72;6316379;22;20052;-94
2021/11/15 07:46:22;;;;;;;;;;;;;;;;;;;;;
2021/11/15 07:53:30;;;;;;;;;;;;;;;;;;;;;
2021/11/15 07:57:16;;;;;;;;;;;;;;;;;;;;;
2021/11/15 08:04:34;;;;;;;;;;;;;;;;;;;;;
2021/11/15 08:11:42;;;;;;;4.00;1.17;;;;;;;6.68;92.54;92809.38;6300577;22;20047;-94
2021/11/15 08:15:00;;;;;;;;;;;;;;;;;;;;;
2021/11/15 08:18:01;;;;;;;2.78;1.48;;;;;;;6.68;91.14;92796.38;6311241;22;20019;-93
2021/11/15 08:21:11;;;;;;;;;;;;;;;;;;;;;
2021/11/15 08:24:35;;;;;;;5.05;1.30;;;;;;;6.72;92.18;92794.84;6338203;22;20093;-94
2021/11/15 08:31:31;;;;;;;;;;;;;;;;;;;;;
2021/11/15 08:41:21;;;;;;;1.90;1.00;;;;;;;6.97;93.47;92827.19;6304162;22;20015;-92
2021/11/15 08:44:53;;;;;;;;;;;;;;;;;;;;;
2021/11/15 08:48:02;;;;;;;;;;;;;;;;;;;;;
2021/11/15 08:51:21;;;;;;;;;;;;;;;;;;;;;
2021/11/15 08:54:58;;;;;;;;;;;;;;;;;;;;;
2021/11/15 08:58:14;;;;;;;;;;;;;;;;;;;;;
2021/11/15 09:01:23;;;;;;;;;;;;;;;;;;;;;
2021/11/15 09:07:47;;;;;;;2.97;1.10;;;;;;;7.10;86.99;92860.56;6346002;22;20010;-93
2021/11/15 09:10:32;;;;;;;1.88;1.10;;;;;;;7.20;87.64;92868.41;6308635;22;20460;-93
2021/11/15 09:20:28;;;;;;;;;;;;;;;;;;;;;
2021/11/15 09:23:30;;;;;;;;;;;;;;;;;;;;;
2021/11/15 09:26:58;;;;;;;10.63;4.30;;;;;;;7.40;88.64;92879.94;6341481;22;20022;-92
2021/11/15 09:29:55;;;;;;;4.28;1.70;;;;;;;7.44;87.97;92878.38;6311536;22;20025;-93
2021/11/15 09:32:47;;;;;;;1.88;1.20;;;;;;;7.53;88.06;92889.88;6300143;22;20649;-93
2021/11/15 09:35:44;;;;;;;2.47;1.50;;;;;;;7.49;88.04;92883.59;6315527;22;20121;-94
2021/11/15 09:41:47;;;;;;;;;;;;;;;;;;;;;
2021/11/15 09:45:01;;;;;;;;;;;;;;;;;;;;;
2021/11/15 09:48:02;;;;;;;6.78;2.85;;;;;;;7.22;89.91;92899.41;6369978;22;20366;-93
2021/11/15 09:58:18;;;;;;;;;;;;;;;;;;;;;
2021/11/15 10:05:30;;;;;;;;;;;;;;;;;;;;;
2021/11/15 10:16:59;;;;;;;;;;;;;;;;;;;;;
2021/11/15 10:20:16;;;;;;;;;;;;;;;;;;;;;
2021/11/15 10:23:55;;;;;;;;;;;;;;;;;;;;;
2021/11/15 10:27:28;;;;;;;2.33;1.35;;;;;;;7.80;86.02;92870.63;6274730;22;20071;-94
2021/11/15 10:31:17;;;;;;;;;;;;;;;;;;;;;
2021/11/15 10:35:06;;;;;;;;;;;;;;;;;;;;;
2021/11/15 10:38:18;;;;;;;;;;;;;;;;;;;;;
2021/11/15 10:45:08;;;;;;;1.27;1.10;;;;;;;7.78;86.30;92883.16;6301251;22;20094;-95
2021/11/15 10:51:06;;;;;;;5.80;2.25;;;;;;;7.79;87.35;92885.50;6358063;22;20121;-93
2021/11/15 10:54:38;;;;;;;;;;;;;;;;;;;;;
2021/11/15 11:06:01;;;;;;;2.97;1.52;;;;;;;8.09;87.31;92913.41;6220553;22;20011;-92
2021/11/15 11:09:11;;;;;;;2.90;1.58;;;;;;;8.10;86.35;92907.16;6263337;22;20007;-93
2021/11/15 11:12:14;;;;;;;2.47;1.27;;;;;;;8.06;86.02;92900.09;6289788;22;20102;-93
2021/11/15 11:19:13;;;;;;;;;;;;;;;;;;;;;
2021/11/15 11:22:59;;;;;;;;;;;;;;;;;;;;;
2021/11/15 11:26:37;;;;;;;;;;;;;;;;;;;;;
2021/11/15 11:29:37;;;;;;;;;;;;;;;;;;;;;
2021/11/15 11:32:30;;;;;;;;;;;;;;;;;;;;;
2021/11/15 11:35:50;;;;;;;5.43;1.65;;;;;;;7.83;87.25;92914.41;6311961;22;20015;-93
2021/11/15 11:39:07;;;;;;;;;;;;;;;;;;;;;
2021/11/15 11:42:27;;;;;;;;;;;;;;;;;;;;;
2021/11/15 11:49:19;;;;;;;;;;;;;;;;;;;;;
2021/11/15 11:56:21;;;;;;;;;;;;;;;;;;;;;
2021/11/15 12:00:10;;;;;;;;;;;;;;;;;;;;;
2021/11/15 12:11:59;;;;;;;;;;;;;;;;;;;;;
2021/11/15 12:15:56;;;;;;;;;;;;;;;;;;;;;
2021/11/15 12:23:33;;;;;;;;;;;;;;;;;;;;;
2021/11/15 12:31:02;;;;;;;;;;;;;;;;;;;;;
2021/11/15 12:41:28;;;;;;;;;;;;;;;;;;;;;
2021/11/15 12:45:06;;;;;;;;;;;;;;;;;;;;;
2021/11/15 12:48:16;;;;;;;;;;;;;;;;;;;;;
2021/11/15 13:02:54;;;;;;;;;;;;;;;;;;;;;
2021/11/15 13:06:11;;;;;;;;;;;;;;;;;;;;;
2021/11/15 13:09:14;;;;;;;;;;;;;;;;;;;;;
2021/11/15 13:12:13;;;;;;;;;;;;;;;;;;;;;
2021/11/15 13:15:07;;;;;;;3.30;1.80;;;;;;;7.98;95.59;92903.25;6297934;22;20101;-94
2021/11/15 13:21:13;;;;;;;4.93;1.98;;;;;;;8.00;96.19;92906.38;6305442;22;20473;-94
2021/11/15 13:24:08;;;;;;;4.15;2.03;;;;;;;8.08;95.85;92919.69;6267102;22;20068;-92
2021/11/15 13:27:27;;;;;;;;;;;;;;;;;;;;;
2021/11/15 13:34:32;;;;;;;;;;;;;;;;;;;;;
2021/11/15 13:37:38;;;;;;;;;;;;;;;;;;;;;
2021/11/15 13:48:44;;;;;;;4.15;2.10;;;;;;;7.95;95.12;92907.16;6336023;22;20636;-94
2021/11/15 13:52:11;;;;;;;;;;;;;;;;;;;;;
2021/11/15 13:55:02;;;;;;;4.15;2.25;;;;;;;7.94;95.68;92900.38;6338582;22;20082;-92
2021/11/15 14:01:20;;;;;;;;;;;;;;;;;;;;;
2021/11/15 14:04:21;;;;;;;5.22;2.25;;;;;;;7.99;95.33;92895.16;6304515;22;20038;-93
2021/11/15 14:07:38;;;;;;;4.65;2.30;;;;;;;8.01;95.05;92908.72;6289172;22;20076;-92
2021/11/15 14:11:07;;;;;;;;;;;;;;;;;;;;;
2021/11/15 14:14:43;;;;;;;;;;;;;;;;;;;;;
2021/11/15 14:18:04;;;;;;;4.15;2.15;;;;;;;8.12;92.97;92920.72;6331740;22;20018;-93
2021/11/15 14:21:31;;;;;;;;;;;;;;;;;;;;;
2021/11/15 14:30:45;;;;;;;5.15;2.35;;;;;;;8.09;94.47;92931.66;6221956;22;20019;-75
2021/11/15 14:33:11;;;;;;;6.63;2.95;;;;;;;8.11;94.15;92934.81;6220888;22;20065;-75
2021/11/15 14:35:41;;;;;;;6.22;2.97;;;;;;;8.11;92.96;92932.19;6245626;22;20019;-77
2021/11/15 14:38:06;;;;;;;4.40;2.08;;;;;;;8.12;92.92;92931.13;6273018;22;20012;-77
2021/11/15 14:40:32;;;;;;;3.78;2.00;;;;;;;8.13;91.80;92931.94;6245386;22;20054;-77
2021/11/15 14:42:58;;;;;;;6.22;2.42;;;;;;;8.16;91.15;92935.84;6245045;22;20019;-77
2021/11/15 14:45:24;;;;;;;4.70;2.50;;;;;;;8.20;92.18;92929.84;6220171;22;20003;-77
2021/11/15 14:47:50;;;;;;;5.90;2.45;;;;;;;8.21;92.32;92935.84;6245986;22;20012;-77
2021/11/15 14:50:16;;;;;;;5.18;2.50;;;;;;;8.23;93.09;92939.75;6272715;22;20049;-77
2021/11/15 14:52:42;;;;;;;5.18;2.67;;;;;;;8.24;93.36;92943.94;6245666;22;20008;-77
2021/11/15 14:55:12;;;;;;;6.03;2.75;;;;;;;8.23;92.02;92936.38;6220783;22;20012;-77
2021/11/15 14:57:38;;;;;;;5.57;2.30;;;;;;;8.13;91.36;92943.16;6271581;22;20038;-77
2021/11/15 15:00:07;;;;;;;6.32;2.15;;;;;;;8.24;89.94;92945.75;6245591;22;20066;-77
2021/11/15 15:02:33;;;;;;;5.38;1.90;;;;;;;8.34;88.13;92951.78;6245588;22;20081;-77
2021/11/15 15:04:58;;;;;;;4.88;2.17;;;;;;;8.30;88.17;92947.34;6245826;22;20003;-76
2021/11/15 15:07:24;;;;;;;4.55;2.20;;;;;;;8.18;88.90;92947.59;6245503;22;20019;-76
2021/11/15 15:09:50;;;;;;;4.93;2.10;;;;;;;8.09;89.71;92947.31;6245286;22;20010;-76
2021/11/15 15:12:16;;;;;;;4.38;2.25;;;;;;;8.05;89.95;92948.09;6271757;22;20062;-77
2021/11/15 15:14:43;;;;;;;9.07;3.00;;;;;;;8.01;90.42;92947.81;6245709;22;20512;-76
2021/11/15 15:17:10;;;;;;;10.57;2.88;;;;;;;8.00;90.48;92946.25;6220448;22;20528;-77
2021/11/15 15:20:18;;;;;;;5.28;2.53;;;;;;;7.99;91.00;92949.13;6245861;22;20106;-77
2021/11/15 15:22:24;;;;;;;5.15;2.72;;;;;;;7.97;91.46;92946.78;6255651;22;20020;-77
2021/11/15 15:24:50;;;;;;;5.00;2.42;;;;;;;7.95;91.85;92956.69;6272888;22;20130;-76
2021/11/15 15:27:16;;;;;;;6.13;2.88;;;;;;;7.92;92.28;92955.38;6244866;22;20323;-77
2021/11/15 15:29:42;;;;;;;5.40;2.88;;;;;;;7.93;93.69;92961.38;6245349;22;20019;-76
2021/11/15 15:32:08;;;;;;;6.20;3.42;;;;;;;7.90;94.74;92970.50;6272469;22;20048;-77
2021/11/15 15:34:34;;;;;;;5.68;2.88;;;;;;;7.76;96.88;92973.84;6272037;22;20015;-77
2021/11/15 15:36:59;;;;;;;5.25;2.65;;;;;;;7.76;96.11;92974.59;6273184;22;20009;-77
2021/11/15 15:39:25;;;;;;;5.72;2.67;;;;;;;7.75;95.63;92978.28;6272068;22;20023;-77
2021/11/15 15:41:54;;;;;;;5.30;2.53;;;;;;;7.75;94.89;92980.88;6272489;22;20011;-77
2021/11/15 15:44:20;;;;;;;4.93;2.30;;;;;;;7.74;91.28;92983.72;6272288;22;20011;-77
2021/11/15 15:46:46;;;;;;;4.38;2.00;;;;;;;7.74;90.81;92986.34;6272240;22;20042;-77
2021/11/15 15:49:12;;;;;;;4.18;2.20;;;;;;;7.69;91.43;92984.50;6220817;22;20065;-77
2021/11/15 15:51:37;;;;;;;9.05;2.40;;;;;;;7.65;91.93;92988.66;6272010;22;20086;-77
2021/11/15 15:54:03;;;;;;;5.00;2.53;;;;;;;7.64;92.68;92987.09;6272143;22;20011;-77
2021/11/15 15:56:30;;;;;;;6.53;2.95;;;;;;;7.63;93.29;92996.72;6272455;22;20003;-77
2021/11/15 15:58:58;;;;;;;5.47;2.80;;;;;;;7.61;93.10;92992.78;6244718;22;20012;-77
2021/11/15 16:01:24;;;;;;;7.13;3.95;;;;;;;7.60;93.51;92992.00;6272871;22;19999;-76
2021/11/15 16:04:09;;;;;;;7.72;3.92;;;;;;;7.61;94.17;92992.78;6271933;22;20061;-76
2021/11/15 16:17:15;;;;;;;8.60;4.57;;;;;;;7.46;96.01;92999.50;6271831;22;20413;-78
2021/11/15 16:19:42;;;;;;;7.53;3.08;;;;;;;7.43;95.56;93005.25;6221504;22;20073;-77
2021/11/15 16:22:09;;;;;;;7.63;3.38;;;;;;;7.42;94.91;93002.88;6272366;22;20015;-77
2021/11/15 16:24:36;;;;;;;5.18;2.58;;;;;;;7.41;94.78;93006.53;6271890;22;20065;-77
2021/11/15 16:27:02;;;;;;;4.68;2.15;;;;;;;7.41;94.37;93011.75;6223094;22;20019;-77
2021/11/15 16:29:28;;;;;;;4.43;2.50;;;;;;;7.40;92.88;93003.13;6274511;22;20465;-77
2021/11/15 16:31:54;;;;;;;4.93;2.50;;;;;;;7.38;93.45;93007.81;6275890;22;20076;-75
2021/11/15 16:34:20;;;;;;;8.07;3.50;;;;;;;7.39;93.68;93011.22;6278994;22;20055;-76
2021/11/15 16:36:46;;;;;;;9.18;5.00;;;;;;;7.36;93.82;93022.91;6276433;22;20018;-77
2021/11/15 16:39:13;;;;;;;11.20;4.63;;;;;;;7.33;93.99;93018.19;6277489;22;20007;-77
2021/11/15 16:41:40;;;;;;;7.88;3.72;;;;;;;7.32;94.42;93015.84;6224212;22;20020;-78
2021/11/15 16:44:07;;;;;;;8.57;3.85;;;;;;;7.34;93.87;93018.97;6275703;22;20499;-77
2021/11/15 16:46:35;;;;;;;8.85;3.50;;;;;;;7.26;94.71;93020.25;6276000;22;20039;-78
2021/11/15 16:49:01;;;;;;;7.63;3.63;;;;;;;7.25;95.16;93016.88;6280257;22;20063;-80
2021/11/15 16:51:27;;;;;;;9.45;3.78;;;;;;;7.26;94.79;93018.44;6253545;22;20011;-81
2021/11/15 16:53:55;;;;;;;7.85;3.70;;;;;;;7.26;95.02;93021.03;6227190;22;20000;-77
2021/11/15 16:56:23;;;;;;;10.38;3.90;;;;;;;7.27;95.37;93032.22;6274048;22;20023;-81
2021/11/15 16:58:48;;;;;;;11.38;4.60;;;;;;;7.25;95.33;93024.69;6274862;22;20003;-77
2021/11/15 17:01:14;;;;;;;8.23;4.30;;;;;;;7.24;95.81;93024.94;6277151;22;20083;-81
2021/11/15 17:03:42;;;;;;;8.07;3.45;;;;;;;7.25;95.72;93024.69;6278036;22;20419;-82
2021/11/15 17:06:10;;;;;;;6.80;3.40;;;;;;;7.25;95.57;93027.28;6253860;22;20062;-81
2021/11/15 17:08:36;;;;;;;6.07;3.03;;;;;;;7.25;96.00;93029.91;6256658;22;20002;-81
2021/11/15 17:11:07;;;;;;;6.03;3.03;;;;;;;7.23;96.25;93033.78;6282527;22;20012;-80
2021/11/15 17:13:39;;;;;;;6.90;3.33;;;;;;;7.21;96.42;93034.03;6284663;22;20114;-82
2021/11/15 17:16:08;;;;;;;5.68;3.10;;;;;;;7.20;96.72;93032.44;6284469;22;20398;-82
2021/11/15 17:18:37;;;;;;;5.38;2.88;;;;;;;7.22;96.75;93032.19;6283200;22;19995;-81
2021/11/15 17:21:03;;;;;;;6.63;3.20;;;;;;;7.20;96.92;93036.88;6282762;22;20022;-80
2021/11/15 17:23:30;;;;;;;6.63;3.45;;;;;;;7.19;97.17;93037.94;6253057;22;20008;-82
2021/11/15 17:25:58;;;;;;;7.97;3.58;;;;;;;7.19;96.94;93040.53;6251301;22;20015;-80
2021/11/15 17:28:24;;;;;;;5.93;3.10;;;;;;;7.18;97.35;93039.75;6281087;22;20388;-79
2021/11/15 17:30:50;;;;;;;6.47;3.40;;;;;;;7.19;97.70;93038.69;6281974;22;20046;-80
2021/11/15 17:33:16;;;;;;;5.57;2.90;;;;;;;7.17;97.54;93032.19;6282439;22;20007;-80
2021/11/15 17:35:42;;;;;;;7.38;3.80;;;;;;;7.16;97.30;93021.00;6228231;22;20011;-82
2021/11/15 17:38:13;;;;;;;9.35;5.00;;;;;;;7.16;97.54;93031.41;6249429;22;20004;-82
2021/11/15 17:40:39;;;;;;;13.80;6.53;;;;;;;7.18;97.59;93050.16;6278079;22;20026;-83
2021/11/15 17:43:05;;;;;;;11.52;4.78;;;;;;;7.16;97.67;93043.63;6281891;22;20027;-80
2021/11/15 17:45:33;;;;;;;13.52;4.78;;;;;;;7.22;97.60;93038.19;6252167;22;20466;-81
2021/11/15 17:48:01;;;;;;;8.15;4.15;;;;;;;7.18;97.45;93042.34;6281964;22;20037;-82
2021/11/15 17:50:32;;;;;;;6.00;3.35;;;;;;;7.17;97.93;93040.00;6250248;22;20007;-81
2021/11/15 17:52:58;;;;;;;7.45;4.05;;;;;;;7.14;97.91;93046.50;6276189;22;20055;-81
2021/11/15 17:58:23;;;;;;;7.13;3.47;;;;;;;7.13;98.08;93047.50;6285112;22;20015;-79
2021/11/15 18:00:52;;;;;;;8.80;3.88;;;;;;;7.12;98.07;93035.53;6282097;22;20019;-80
2021/11/15 18:03:37;;;;;;;11.07;4.93;;;;;;;7.13;98.21;93034.50;6283117;22;20134;-80
2021/11/15 18:06:03;;;;;;;11.10;3.60;;;;;;;7.13;98.03;93036.31;6285208;22;20019;-81
2021/11/15 18:08:29;;;;;;;12.18;4.45;;;;;;;7.12;98.30;93045.94;6280999;22;20035;-81
2021/11/15 18:10:55;;;;;;;9.15;4.40;;;;;;;7.12;98.37;93048.56;6277138;22;20073;-78
2021/11/15 18:13:22;;;;;;;11.48;5.93;;;;;;;7.13;98.13;93055.31;6275642;22;20004;-81
2021/11/15 18:15:48;;;;;;;10.50;5.47;;;;;;;7.14;98.26;93064.72;6275841;22;20010;-79
2021/11/15 18:18:19;;;;;;;11.45;5.90;;;;;;;7.12;98.23;93053.75;6276822;22;20020;-79
2021/11/15 18:20:47;;;;;;;15.48;5.13;;;;;;;7.12;97.86;93058.19;6275919;22;20355;-81
2021/11/15 18:23:13;;;;;;;9.85;4.03;;;;;;;7.10;98.06;93053.22;6275206;22;20007;-80
2021/11/15 18:25:39;;;;;;;9.23;4.38;;;;;;;7.10;97.72;93040.22;6275017;22;20142;-78
2021/11/15 18:28:06;;;;;;;8.25;4.32;;;;;;;7.09;98.28;93044.63;6274480;22;20011;-78
2021/11/15 18:30:34;;;;;;;7.07;3.75;;;;;;;7.10;98.05;93048.03;6222049;22;20019;-79
2021/11/15 18:33:01;;;;;;;7.10;3.63;;;;;;;7.13;97.91;93059.75;6273609;22;20011;-81
2021/11/15 18:35:27;;;;;;;9.63;5.30;;;;;;;7.13;98.02;93057.91;6274962;22;20022;-81
2021/11/15 18:37:53;;;;;;;12.40;4.40;;;;;;;7.15;98.54;93053.25;6273773;22;20023;-81
2021/11/15 18:40:20;;;;;;;7.82;3.17;;;;;;;7.13;98.62;93046.72;6250828;22;20020;-81
2021/11/15 18:42:48;;;;;;;6.97;3.25;;;;;;;7.10;98.51;93045.41;6275976;22;20129;-79
2021/11/15 18:45:18;;;;;;;8.02;3.55;;;;;;;7.06;98.84;93045.13;6252195;22;20024;-81
2021/11/15 18:47:49;;;;;;;6.72;3.10;;;;;;;7.04;98.71;93044.59;6274481;22;19996;-80
2021/11/15 18:50:15;;;;;;;8.52;3.53;;;;;;;7.04;99.12;93043.81;6274725;22;20091;-79
2021/11/15 18:52:40;;;;;;;8.13;4.03;;;;;;;7.04;99.20;93057.59;6275178;22;20106;-80
2021/11/15 18:55:09;;;;;;;7.18;3.67;;;;;;;7.04;98.69;93052.38;6249312;22;20462;-79
2021/11/15 18:57:35;;;;;;;5.47;2.78;;;;;;;7.07;99.09;93061.53;6247645;22;20003;-79
2021/11/15 19:00:03;;;;;;;8.05;4.05;;;;;;;7.02;99.01;93053.69;6275554;22;20011;-80
2021/11/15 19:02:28;;;;;;;8.27;3.53;;;;;;;7.00;99.20;93059.16;6275215;22;20368;-79
2021/11/15 19:05:01;;;;;;;10.68;5.10;;;;;;;6.97;99.30;93067.44;6275672;22;20016;-80
2021/11/15 19:07:32;;;;;;;8.82;4.45;;;;;;;6.97;98.97;93064.06;6275275;22;20015;-79
2021/11/15 19:09:58;;;;;;;6.57;3.63;;;;;;;6.96;98.80;93070.28;6275925;22;20023;-79
2021/11/15 19:12:28;;;;;;;12.65;3.60;;;;;;;6.96;98.82;93065.09;6275723;22;20083;-79
2021/11/15 19:14:55;;;;;;;8.13;3.53;;;;;;;6.95;98.93;93068.72;6248675;22;20035;-80
2021/11/15 19:17:21;;;;;;;9.23;3.38;;;;;;;6.94;98.99;93067.94;6248816;22;20003;-80
2021/11/15 19:19:49;;;;;;;8.27;2.90;;;;;;;6.93;99.01;93066.38;6249116;22;20046;-80
2021/11/15 19:22:14;;;;;;;5.53;2.70;;;;;;;6.94;99.39;93072.38;6248474;22;20069;-80
2021/11/15 19:24:46;;;;;;;6.25;2.63;;;;;;;6.93;99.09;93070.78;6275629;22;20015;-80
2021/11/15 19:27:13;;;;;;;5.25;2.70;;;;;;;6.91;99.05;93071.03;6249279;22;20102;-80
2021/11/15 19:29:41;;;;;;;6.25;2.70;;;;;;;6.91;99.30;93072.84;6276611;22;20034;-80
2021/11/15 19:32:07;;;;;;;8.85;2.83;;;;;;;6.92;98.93;93074.44;6199170;22;20012;-80
2021/11/15 19:34:33;;;;;;;4.88;2.75;;;;;;;6.90;98.90;93064.28;6248439;22;20415;-81
2021/11/15 19:37:00;;;;;;;6.38;3.00;;;;;;;6.87;99.14;93073.38;6247796;22;20368;-79
2021/11/15 19:39:30;;;;;;;7.47;2.85;;;;;;;6.87;99.23;93067.38;6276811;22;20043;-80
2021/11/15 19:41:57;;;;;;;8.27;3.97;;;;;;;6.85;98.83;93062.41;6247972;22;20046;-80
2021/11/15 19:44:23;;;;;;;20.23;4.15;;;;;;;6.85;98.71;93065.03;6249007;22;20003;-80
2021/11/15 19:46:49;;;;;;;8.40;3.60;;;;;;;6.83;99.04;93056.66;6275881;22;20022;-80
2021/11/15 19:49:20;;;;;;;6.47;3.38;;;;;;;6.82;98.65;93059.50;6274029;22;20003;-80
2021/11/15 19:51:51;;;;;;;7.35;3.60;;;;;;;6.80;98.61;93059.78;6273994;22;20069;-79
2021/11/15 19:54:19;;;;;;;8.35;3.70;;;;;;;6.81;98.83;93063.94;6249404;22;20004;-79
2021/11/15 19:56:45;;;;;;;7.10;3.30;;;;;;;6.80;98.33;93069.38;6277553;22;20042;-81
2021/11/15 19:59:11;;;;;;;19.77;7.82;;;;;;;6.76;98.97;93070.94;6249493;22;20008;-79
2021/11/15 20:01:37;;;;;;;10.02;4.65;;;;;;;6.75;98.87;93067.53;6278471;22;20000;-79
2021/11/15 20:04:04;;;;;;;13.00;5.75;;;;;;;6.73;98.66;93066.97;6277190;22;20031;-79
2021/11/15 20:06:30;;;;;;;20.27;6.75;;;;;;;6.73;98.69;93072.19;6277473;22;20067;-79
2021/11/15 20:08:56;;;;;;;14.60;6.30;;;;;;;6.73;99.15;93077.41;6250699;22;20063;-80
2021/11/15 20:11:22;;;;;;;12.27;5.65;;;;;;;6.72;99.50;93075.84;6249803;22;20007;-80
2021/11/15 20:13:48;;;;;;;9.13;4.30;;;;;;;6.73;99.40;93069.59;6277872;22;20087;-80
2021/11/15 20:16:13;;;;;;;8.93;4.47;;;;;;;6.76;99.11;93070.94;6277863;22;20034;-80
2021/11/15 20:18:40;;;;;;;9.20;4.93;;;;;;;6.77;99.25;93082.91;6225614;22;20011;-80
2021/11/15 20:21:07;;;;;;;13.40;6.03;;;;;;;6.76;99.39;93082.13;6276486;22;20126;-79
2021/11/15 20:23:35;;;;;;;11.10;4.68;;;;;;;6.75;99.10;93072.72;6226566;22;20007;-78
2021/11/15 20:26:01;;;;;;;10.57;4.35;;;;;;;6.74;99.50;93068.56;6277896;22;20011;-78
2021/11/15 20:28:27;;;;;;;11.05;4.45;;;;;;;6.74;99.09;93073.78;6252538;22;20004;-78
2021/11/15 20:30:54;;;;;;;9.20;4.45;;;;;;;6.73;99.34;93066.97;6251233;22;20011;-78
2021/11/15 20:33:22;;;;;;;7.68;3.40;;;;;;;6.71;99.10;93066.47;6251158;22;20003;-79
2021/11/15 20:35:49;;;;;;;12.63;3.28;;;;;;;6.71;98.86;93071.69;6278201;22;20023;-79
2021/11/15 20:38:15;;;;;;;7.13;3.78;;;;;;;6.71;98.87;93074.28;6277481;22;20047;-79
2021/11/15 20:40:41;;;;;;;12.50;3.22;;;;;;;6.70;99.05;93074.53;6280167;22;20082;-78
2021/11/15 20:43:12;;;;;;;9.93;3.38;;;;;;;6.75;98.74;93085.75;6227009;22;20008;-78
2021/11/15 20:45:40;;;;;;;10.70;5.07;;;;;;;6.73;98.46;93084.41;6248729;22;20011;-79
2021/11/15 20:48:07;;;;;;;11.27;5.75;;;;;;;6.72;98.74;93072.47;6276592;22;20383;-78
2021/11/15 20:50:32;;;;;;;12.60;6.65;;;;;;;6.70;98.75;93067.50;6276339;22;20026;-77
2021/11/15 20:52:59;;;;;;;10.40;5.20;;;;;;;6.70;98.75;93072.69;6275149;22;20007;-79
2021/11/15 20:55:25;;;;;;;10.98;5.18;;;;;;;6.66;99.11;93079.41;6275047;22;20014;-78
2021/11/15 20:57:53;;;;;;;6.93;3.20;;;;;;;6.65;98.95;93083.06;6248417;22;20011;-78
2021/11/15 21:00:34;;;;;;;7.07;3.28;;;;;;;6.63;99.22;93072.91;6248518;22;20007;-78
2021/11/15 21:02:59;;;;;;;10.82;5.03;;;;;;;6.62;98.89;93070.53;6223723;22;20011;-78
2021/11/15 21:05:29;;;;;;;14.18;5.20;;;;;;;6.61;99.21;93069.75;6276556;22;20382;-78
2021/11/15 21:07:55;;;;;;;10.73;4.10;;;;;;;6.61;98.96;93074.19;6249352;22;20374;-79
2021/11/15 21:10:21;;;;;;;13.15;4.20;;;;;;;6.60;98.54;93077.81;6276324;22;20002;-79
2021/11/15 21:12:47;;;;;;;8.45;3.67;;;;;;;6.60;98.79;93083.03;6276594;22;20399;-78
2021/11/15 21:15:13;;;;;;;6.55;3.28;;;;;;;6.59;98.66;93073.63;6276124;22;19996;-78
2021/11/15 21:17:39;;;;;;;6.57;3.25;;;;;;;6.56;98.89;93077.53;6249447;22;20015;-77
2021/11/15 21:20:08;;;;;;;13.95;2.97;;;;;;;6.58;98.72;93074.69;6276134;22;20045;-79
2021/11/15 21:22:35;;;;;;;5.60;2.88;;;;;;;6.55;98.80;93075.97;6275534;22;20016;-78
2021/11/15 21:25:14;;;;;;;8.48;3.67;;;;;;;6.55;98.82;93075.97;6276085;22;20003;-79
2021/11/15 21:27:49;;;;;;;4.43;2.47;;;;;;;6.55;98.93;93083.78;6248323;22;20389;-78
2021/11/15 21:30:17;;;;;;;6.05;2.67;;;;;;;6.57;98.65;93075.69;6275379;22;20015;-78
2021/11/15 21:32:44;;;;;;;5.18;2.67;;;;;;;6.56;98.92;93066.34;6248577;22;20016;-78
2021/11/15 21:35:11;;;;;;;5.38;2.47;;;;;;;6.55;98.98;93065.56;6218358;23;20024;-78
2021/11/15 21:37:38;;;;;;;5.78;2.53;;;;;;;6.54;99.03;93063.19;6214106;22;20054;-78
2021/11/15 21:40:07;;;;;;;7.70;2.95;;;;;;;6.56;99.52;93066.34;6275748;22;20022;-78
2021/11/15 21:42:33;;;;;;;6.65;3.17;;;;;;;6.57;99.53;93067.91;6248572;22;20431;-78
2021/11/15 21:44:58;;;;;;;6.63;2.88;;;;;;;6.57;99.30;93067.91;6248397;22;20106;-77
2021/11/15 21:47:24;;;;;;;7.10;3.30;;;;;;;6.56;99.17;93074.91;6276728;22;20027;-79
2021/11/15 21:49:50;;;;;;;5.40;2.92;;;;;;;6.56;99.31;93066.34;6223666;22;20016;-79
2021/11/15 21:52:18;;;;;;;10.52;3.38;;;;;;;6.56;99.56;93066.34;6222816;22;20352;-79
2021/11/15 21:54:46;;;;;;;6.80;3.45;;;;;;;6.58;99.09;93069.47;6275983;22;20038;-78
2021/11/15 21:57:12;;;;;;;6.80;3.30;;;;;;;6.58;98.90;93069.47;6275663;22;20061;-78
2021/11/15 21:59:39;;;;;;;7.53;3.58;;;;;;;6.56;98.97;93064.50;6275274;22;20026;-78
2021/11/15 22:11:16;;;;;;;6.70;3.20;;;;;;;6.45;98.59;93045.44;6267650;22;20095;-92
2021/11/15 22:14:45;;;;;;;;;;;;;;;;;;;;;
2021/11/15 22:18:13;;;;;;;;;;;;;;;;;;;;;
2021/11/15 22:24:35;;;;;;;4.68;2.50;;;;;;;6.44;98.97;93043.09;6271652;22;20044;-91
2021/11/15 22:28:10;;;;;;;;;;;;;;;;;;;;;
2021/11/15 22:31:34;;;;;;;4.05;2.20;;;;;;;6.45;99.36;93049.84;6216530;23;20041;-91
2021/11/15 22:35:09;;;;;;;;;;;;;;;;;;;;;
2021/11/15 22:45:34;;;;;;;;;;;;;;;;;;;;;
2021/11/15 22:48:56;;;;;;;5.32;2.38;;;;;;;6.39;100.00;93036.00;6254659;22;20094;-91
2021/11/15 22:55:59;;;;;;;;;;;;;;;;;;;;;
2021/11/15 22:59:18;;;;;;;6.45;2.45;;;;;;;6.41;99.29;93027.97;6279718;22;20099;-93
2021/11/15 23:02:19;;;;;;;6.55;2.90;;;;;;;6.42;99.66;93032.94;6227432;22;20012;-93
2021/11/15 23:09:17;;;;;;;;;;;;;;;;;;;;;
2021/11/15 23:12:41;;;;;;;4.97;2.45;;;;;;;6.54;99.30;93045.00;6256071;22;20469;-92
2021/11/15 23:15:37;;;;;;;6.75;2.80;;;;;;;6.47;99.21;93027.75;6251296;22;20351;-93